sensor_id;sensor_type;location;lat;lon;timestamp;pressure;altitude;pressure_sealevel;temperature;humidity
9307;BME280;4691;47.612;7.610;2023-04-28T00:00:29;98676.66;;;14.97;100.00
9307;BME280;4691;47.612;7.610;2023-04-28T00:02:55;98673.53;;;15.02;100.00
9307;BME280;4691;47.612;7.610;2023-04-28T00:05:20;98672.16;;;14.98;100.00
9307;BME280;4691;47.612;7.610;2023-04-28T00:07:49;98671.75;;;14.93;100.00
9307;BME280;4691;47.612;7.610;2023-04-28T00:10:14;98675.44;;;14.92;100.00
9307;BME280;4691;47.612;7.610;2023-04-28T00:12:39;98671.44;;;14.96;100.00
9307;BME280;4691;47.612;7.610;2023-04-28T00:15:05;98666.66;;;14.90;100.00
9307;BME280;4691;47.612;7.610;2023-04-28T00:17:31;98664.91;;;14.98;100.00
9307;BME280;4691;47.612;7.610;2023-04-28T00:19:56;98670.44;;;14.97;100.00
9307;BME280;4691;47.612;7.610;2023-04-28T00:22:22;98675.81;;;14.97;100.00
9307;BME280;4691;47.612;7.610;2023-04-28T00:24:50;98676.84;;;14.96;100.00
9307;BME280;4691;47.612;7.610;2023-04-28T00:27:15;98680.63;;;15.03;100.00
9307;BME280;4691;47.612;7.610;2023-04-28T00:29:43;98664.56;;;14.84;100.00
9307;BME280;4691;47.612;7.610;2023-04-28T00:32:08;98641.44;;;14.63;100.00
9307;BME280;4691;47.612;7.610;2023-04-28T00:34:36;98628.19;;;14.52;100.00
9307;BME280;4691;47.612;7.610;2023-04-28T00:37:02;98619.69;;;14.47;100.00
9307;BME280;4691;47.612;7.610;2023-04-28T00:39:28;98611.78;;;14.45;100.00
9307;BME280;4691;47.612;7.610;2023-04-28T00:41:53;98610.94;;;14.45;100.00
9307;BME280;4691;47.612;7.610;2023-04-28T00:44:19;98621.25;;;14.49;100.00
9307;BME280;4691;47.612;7.610;2023-04-28T00:46:44;98623.38;;;14.46;100.00
9307;BME280;4691;47.612;7.610;2023-04-28T00:49:10;98578.84;;;14.33;100.00
9307;BME280;4691;47.612;7.610;2023-04-28T00:51:35;98560.91;;;14.24;100.00
9307;BME280;4691;47.612;7.610;2023-04-28T00:54:01;98543.38;;;14.20;100.00
9307;BME280;4691;47.612;7.610;2023-04-28T00:56:29;98557.28;;;14.15;100.00
9307;BME280;4691;47.612;7.610;2023-04-28T00:58:58;98555.03;;;14.11;100.00
9307;BME280;4691;47.612;7.610;2023-04-28T01:01:23;98548.13;;;14.08;100.00
9307;BME280;4691;47.612;7.610;2023-04-28T01:03:49;98549.66;;;14.11;100.00
9307;BME280;4691;47.612;7.610;2023-04-28T01:06:15;98557.53;;;14.22;100.00
9307;BME280;4691;47.612;7.610;2023-04-28T01:08:41;98553.56;;;14.26;100.00
9307;BME280;4691;47.612;7.610;2023-04-28T01:11:08;98565.69;;;14.30;100.00
9307;BME280;4691;47.612;7.610;2023-04-28T01:13:38;98568.94;;;14.34;100.00
9307;BME280;4691;47.612;7.610;2023-04-28T01:16:03;98553.38;;;14.28;100.00
9307;BME280;4691;47.612;7.610;2023-04-28T01:18:30;98531.25;;;14.16;100.00
9307;BME280;4691;47.612;7.610;2023-04-28T01:20:56;98506.94;;;14.08;100.00
9307;BME280;4691;47.612;7.610;2023-04-28T01:23:21;98472.84;;;14.08;100.00
9307;BME280;4691;47.612;7.610;2023-04-28T01:25:46;98430.72;;;13.99;100.00
9307;BME280;4691;47.612;7.610;2023-04-28T01:28:12;98370.75;;;13.99;100.00
9307;BME280;4691;47.612;7.610;2023-04-28T01:30:37;98347.94;;;14.03;100.00
9307;BME280;4691;47.612;7.610;2023-04-28T01:33:03;98367.22;;;14.16;100.00
9307;BME280;4691;47.612;7.610;2023-04-28T01:35:28;98402.56;;;14.21;100.00
9307;BME280;4691;47.612;7.610;2023-04-28T01:37:54;98421.91;;;14.25;100.00
9307;BME280;4691;47.612;7.610;2023-04-28T01:40:20;98438.31;;;14.31;100.00
9307;BME280;4691;47.612;7.610;2023-04-28T01:42:45;98441.91;;;14.40;100.00
9307;BME280;4691;47.612;7.610;2023-04-28T01:45:11;98456.28;;;14.49;100.00
9307;BME280;4691;47.612;7.610;2023-04-28T01:47:36;98456.00;;;14.52;100.00
9307;BME280;4691;47.612;7.610;2023-04-28T01:50:02;98450.03;;;14.58;100.00
9307;BME280;4691;47.612;7.610;2023-04-28T01:52:27;98443.25;;;14.54;100.00
9307;BME280;4691;47.612;7.610;2023-04-28T01:54:53;98434.47;;;14.52;100.00
9307;BME280;4691;47.612;7.610;2023-04-28T01:57:19;98438.47;;;14.48;100.00
9307;BME280;4691;47.612;7.610;2023-04-28T01:59:45;98433.69;;;14.42;100.00
9307;BME280;4691;47.612;7.610;2023-04-28T02:02:10;98421.53;;;14.37;100.00
9307;BME280;4691;47.612;7.610;2023-04-28T02:04:37;98418.78;;;14.29;100.00
9307;BME280;4691;47.612;7.610;2023-04-28T02:07:02;98415.72;;;14.24;100.00
9307;BME280;4691;47.612;7.610;2023-04-28T02:09:28;98401.88;;;14.19;100.00
9307;BME280;4691;47.612;7.610;2023-04-28T02:11:53;98407.09;;;14.03;100.00
9307;BME280;4691;47.612;7.610;2023-04-28T02:14:22;98371.03;;;13.78;100.00
9307;BME280;4691;47.612;7.610;2023-04-28T02:19:36;98300.31;;;13.22;100.00
9307;BME280;4691;47.612;7.610;2023-04-28T02:22:05;98275.06;;;13.15;100.00
9307;BME280;4691;47.612;7.610;2023-04-28T02:24:34;98236.16;;;13.01;100.00
9307;BME280;4691;47.612;7.610;2023-04-28T02:27:03;98135.63;;;12.95;100.00
9307;BME280;4691;47.612;7.610;2023-04-28T02:29:29;98108.50;;;12.98;100.00
9307;BME280;4691;47.612;7.610;2023-04-28T02:31:57;98044.84;;;12.91;100.00
9307;BME280;4691;47.612;7.610;2023-04-28T02:34:25;98015.59;;;12.97;100.00
9307;BME280;4691;47.612;7.610;2023-04-28T02:36:56;97972.88;;;12.86;100.00
9307;BME280;4691;47.612;7.610;2023-04-28T02:39:27;97935.63;;;12.83;100.00
9307;BME280;4691;47.612;7.610;2023-04-28T02:41:54;97940.69;;;12.86;100.00
9307;BME280;4691;47.612;7.610;2023-04-28T02:44:20;97927.56;;;12.83;100.00
9307;BME280;4691;47.612;7.610;2023-04-28T02:46:51;97918.06;;;12.89;100.00
9307;BME280;4691;47.612;7.610;2023-04-28T02:49:17;97922.81;;;12.95;100.00
9307;BME280;4691;47.612;7.610;2023-04-28T02:51:42;97926.38;;;12.77;100.00
9307;BME280;4691;47.612;7.610;2023-04-28T02:54:08;97918.47;;;12.76;100.00
9307;BME280;4691;47.612;7.610;2023-04-28T02:56:34;97905.22;;;12.74;100.00
9307;BME280;4691;47.612;7.610;2023-04-28T02:59:04;97905.69;;;12.70;100.00
9307;BME280;4691;47.612;7.610;2023-04-28T03:01:32;97877.53;;;12.74;100.00
9307;BME280;4691;47.612;7.610;2023-04-28T03:03:57;97862.13;;;12.76;100.00
9307;BME280;4691;47.612;7.610;2023-04-28T03:06:26;97859.44;;;12.76;100.00
9307;BME280;4691;47.612;7.610;2023-04-28T03:08:52;97858.09;;;12.72;100.00
9307;BME280;4691;47.612;7.610;2023-04-28T03:11:25;97864.81;;;12.76;100.00
9307;BME280;4691;47.612;7.610;2023-04-28T03:13:50;97854.91;;;12.76;100.00
9307;BME280;4691;47.612;7.610;2023-04-28T03:16:18;97860.94;;;12.96;100.00
9307;BME280;4691;47.612;7.610;2023-04-28T03:18:46;97859.25;;;12.95;100.00
9307;BME280;4691;47.612;7.610;2023-04-28T03:21:11;97868.84;;;12.98;100.00
9307;BME280;4691;47.612;7.610;2023-04-28T03:23:36;97885.44;;;13.01;100.00
9307;BME280;4691;47.612;7.610;2023-04-28T03:26:02;97879.25;;;13.01;100.00
9307;BME280;4691;47.612;7.610;2023-04-28T03:28:27;97878.66;;;12.89;100.00
9307;BME280;4691;47.612;7.610;2023-04-28T03:30:56;97871.56;;;12.80;100.00
9307;BME280;4691;47.612;7.610;2023-04-28T03:33:21;97862.81;;;12.78;100.00
9307;BME280;4691;47.612;7.610;2023-04-28T03:35:52;97844.94;;;12.86;100.00
9307;BME280;4691;47.612;7.610;2023-04-28T03:38:21;97817.72;;;12.81;100.00
9307;BME280;4691;47.612;7.610;2023-04-28T03:40:47;97786.88;;;12.77;100.00
9307;BME280;4691;47.612;7.610;2023-04-28T03:43:17;97737.13;;;12.83;100.00
9307;BME280;4691;47.612;7.610;2023-04-28T03:48:31;97747.41;;;12.61;100.00
9307;BME280;4691;47.612;7.610;2023-04-28T03:51:03;97625.56;;;12.64;100.00
9307;BME280;4691;47.612;7.610;2023-04-28T03:53:31;97623.53;;;12.66;100.00
9307;BME280;4691;47.612;7.610;2023-04-28T03:56:01;97638.09;;;12.63;100.00
9307;BME280;4691;47.612;7.610;2023-04-28T03:58:29;97621.47;;;12.52;100.00
9307;BME280;4691;47.612;7.610;2023-04-28T04:00:54;97626.84;;;12.52;100.00
9307;BME280;4691;47.612;7.610;2023-04-28T04:03:20;97631.44;;;12.68;100.00
9307;BME280;4691;47.612;7.610;2023-04-28T04:05:55;97631.78;;;12.73;100.00
9307;BME280;4691;47.612;7.610;2023-04-28T04:08:21;97629.69;;;12.58;100.00
9307;BME280;4691;47.612;7.610;2023-04-28T04:10:49;97629.06;;;12.56;100.00
9307;BME280;4691;47.612;7.610;2023-04-28T04:13:19;97660.25;;;12.66;100.00
9307;BME280;4691;47.612;7.610;2023-04-28T04:15:53;97657.06;;;12.62;100.00
9307;BME280;4691;47.612;7.610;2023-04-28T04:18:19;97704.00;;;12.66;100.00
9307;BME280;4691;47.612;7.610;2023-04-28T04:20:53;97715.88;;;12.63;100.00
9307;BME280;4691;47.612;7.610;2023-04-28T04:23:22;97732.97;;;12.62;100.00
9307;BME280;4691;47.612;7.610;2023-04-28T04:25:58;97758.50;;;12.67;100.00
9307;BME280;4691;47.612;7.610;2023-04-28T04:28:23;97789.97;;;12.64;100.00
9307;BME280;4691;47.612;7.610;2023-04-28T04:30:51;97821.47;;;12.62;100.00
9307;BME280;4691;47.612;7.610;2023-04-28T04:33:20;97840.38;;;12.61;100.00
9307;BME280;4691;47.612;7.610;2023-04-28T04:35:45;97857.22;;;12.71;100.00
9307;BME280;4691;47.612;7.610;2023-04-28T04:38:14;97950.66;;;12.76;100.00
9307;BME280;4691;47.612;7.610;2023-04-28T04:40:42;97952.03;;;12.80;100.00
9307;BME280;4691;47.612;7.610;2023-04-28T04:43:09;97961.06;;;12.79;100.00
9307;BME280;4691;47.612;7.610;2023-04-28T04:45:38;97970.44;;;12.75;100.00
9307;BME280;4691;47.612;7.610;2023-04-28T04:48:04;97976.31;;;12.78;100.00
9307;BME280;4691;47.612;7.610;2023-04-28T04:50:29;97969.44;;;12.76;100.00
9307;BME280;4691;47.612;7.610;2023-04-28T04:52:57;97975.50;;;12.78;100.00
9307;BME280;4691;47.612;7.610;2023-04-28T04:55:23;97963.59;;;12.80;100.00
9307;BME280;4691;47.612;7.610;2023-04-28T04:57:48;97974.34;;;12.80;100.00
9307;BME280;4691;47.612;7.610;2023-04-28T05:00:17;97985.22;;;12.79;100.00
9307;BME280;4691;47.612;7.610;2023-04-28T05:02:45;97979.38;;;12.83;100.00
9307;BME280;4691;47.612;7.610;2023-04-28T05:05:13;97983.91;;;12.83;100.00
9307;BME280;4691;47.612;7.610;2023-04-28T05:07:38;97977.84;;;12.81;100.00
9307;BME280;4691;47.612;7.610;2023-04-28T05:10:04;97983.59;;;12.86;100.00
9307;BME280;4691;47.612;7.610;2023-04-28T05:12:31;98019.03;;;12.90;100.00
9307;BME280;4691;47.612;7.610;2023-04-28T05:14:59;98016.88;;;12.93;100.00
9307;BME280;4691;47.612;7.610;2023-04-28T05:17:25;98024.22;;;12.91;100.00
9307;BME280;4691;47.612;7.610;2023-04-28T05:19:53;98008.56;;;13.04;100.00
9307;BME280;4691;47.612;7.610;2023-04-28T05:22:18;97997.69;;;13.06;100.00
9307;BME280;4691;47.612;7.610;2023-04-28T05:24:46;97996.31;;;13.02;100.00
9307;BME280;4691;47.612;7.610;2023-04-28T05:27:12;97990.66;;;13.05;100.00
9307;BME280;4691;47.612;7.610;2023-04-28T05:29:37;97982.28;;;13.08;100.00
9307;BME280;4691;47.612;7.610;2023-04-28T05:32:06;97970.41;;;13.11;100.00
9307;BME280;4691;47.612;7.610;2023-04-28T05:34:34;97970.06;;;13.14;100.00
9307;BME280;4691;47.612;7.610;2023-04-28T05:37:02;97988.69;;;13.15;100.00
9307;BME280;4691;47.612;7.610;2023-04-28T05:39:27;97982.88;;;13.20;100.00
9307;BME280;4691;47.612;7.610;2023-04-28T05:41:53;97981.28;;;13.27;100.00
9307;BME280;4691;47.612;7.610;2023-04-28T05:44:18;97966.28;;;13.24;100.00
9307;BME280;4691;47.612;7.610;2023-04-28T05:46:44;97965.16;;;13.27;100.00
9307;BME280;4691;47.612;7.610;2023-04-28T05:49:10;97963.19;;;13.29;100.00
9307;BME280;4691;47.612;7.610;2023-04-28T05:51:38;97950.13;;;13.34;100.00
9307;BME280;4691;47.612;7.610;2023-04-28T05:54:09;97937.75;;;13.41;100.00
9307;BME280;4691;47.612;7.610;2023-04-28T05:56:34;97923.69;;;13.47;100.00
9307;BME280;4691;47.612;7.610;2023-04-28T05:59:10;97904.19;;;13.45;100.00
9307;BME280;4691;47.612;7.610;2023-04-28T06:01:36;97910.56;;;13.44;100.00
9307;BME280;4691;47.612;7.610;2023-04-28T06:04:03;97914.59;;;13.48;100.00
9307;BME280;4691;47.612;7.610;2023-04-28T06:06:31;97911.13;;;13.56;100.00
9307;BME280;4691;47.612;7.610;2023-04-28T06:08:59;97913.69;;;13.66;100.00
9307;BME280;4691;47.612;7.610;2023-04-28T06:11:24;97907.34;;;13.75;100.00
9307;BME280;4691;47.612;7.610;2023-04-28T06:13:50;97897.00;;;13.97;100.00
9307;BME280;4691;47.612;7.610;2023-04-28T06:16:19;97891.97;;;13.93;100.00
9307;BME280;4691;47.612;7.610;2023-04-28T06:18:44;97872.19;;;14.03;100.00
9307;BME280;4691;47.612;7.610;2023-04-28T06:21:10;97842.22;;;13.89;100.00
9307;BME280;4691;47.612;7.610;2023-04-28T06:23:40;97822.44;;;13.90;100.00
9307;BME280;4691;47.612;7.610;2023-04-28T06:26:07;97819.91;;;13.89;100.00
9307;BME280;4691;47.612;7.610;2023-04-28T06:28:32;97816.38;;;13.88;100.00
9307;BME280;4691;47.612;7.610;2023-04-28T06:30:58;97813.69;;;13.88;100.00
9307;BME280;4691;47.612;7.610;2023-04-28T06:33:24;97768.66;;;13.74;100.00
9307;BME280;4691;47.612;7.610;2023-04-28T06:35:52;97711.22;;;13.59;100.00
9307;BME280;4691;47.612;7.610;2023-04-28T06:38:20;97684.03;;;13.62;100.00
9307;BME280;4691;47.612;7.610;2023-04-28T06:40:48;97669.41;;;13.56;100.00
9307;BME280;4691;47.612;7.610;2023-04-28T06:43:16;97670.28;;;13.65;100.00
9307;BME280;4691;47.612;7.610;2023-04-28T06:45:41;97675.97;;;13.70;100.00
9307;BME280;4691;47.612;7.610;2023-04-28T06:48:10;97698.81;;;13.74;100.00
9307;BME280;4691;47.612;7.610;2023-04-28T06:50:36;97707.03;;;13.72;100.00
9307;BME280;4691;47.612;7.610;2023-04-28T06:53:03;97729.41;;;14.06;100.00
9307;BME280;4691;47.612;7.610;2023-04-28T06:55:29;97693.75;;;13.71;100.00
9307;BME280;4691;47.612;7.610;2023-04-28T06:57:54;97711.88;;;13.69;100.00
9307;BME280;4691;47.612;7.610;2023-04-28T07:00:23;97748.16;;;13.65;100.00
9307;BME280;4691;47.612;7.610;2023-04-28T07:02:48;97754.38;;;13.65;100.00
9307;BME280;4691;47.612;7.610;2023-04-28T07:05:13;97778.06;;;13.70;100.00
9307;BME280;4691;47.612;7.610;2023-04-28T07:07:41;97786.81;;;13.72;100.00
9307;BME280;4691;47.612;7.610;2023-04-28T07:10:07;97831.66;;;13.80;100.00
9307;BME280;4691;47.612;7.610;2023-04-28T07:12:33;97864.53;;;13.82;100.00
9307;BME280;4691;47.612;7.610;2023-04-28T07:14:58;97879.84;;;13.89;100.00
9307;BME280;4691;47.612;7.610;2023-04-28T07:17:23;97916.16;;;13.93;100.00
9307;BME280;4691;47.612;7.610;2023-04-28T07:19:49;97923.56;;;14.00;100.00
9307;BME280;4691;47.612;7.610;2023-04-28T07:22:18;97928.28;;;14.06;100.00
9307;BME280;4691;47.612;7.610;2023-04-28T07:24:49;97938.38;;;14.12;100.00
9307;BME280;4691;47.612;7.610;2023-04-28T07:27:17;97942.72;;;14.05;100.00
9307;BME280;4691;47.612;7.610;2023-04-28T07:29:42;97930.50;;;14.10;100.00
9307;BME280;4691;47.612;7.610;2023-04-28T07:32:10;97921.75;;;14.08;100.00
9307;BME280;4691;47.612;7.610;2023-04-28T07:34:36;97916.25;;;14.18;100.00
9307;BME280;4691;47.612;7.610;2023-04-28T07:37:02;97905.84;;;14.31;100.00
9307;BME280;4691;47.612;7.610;2023-04-28T07:39:34;97905.03;;;14.47;100.00
9307;BME280;4691;47.612;7.610;2023-04-28T07:42:00;97913.28;;;14.54;100.00
9307;BME280;4691;47.612;7.610;2023-04-28T07:44:27;97868.56;;;14.53;100.00
9307;BME280;4691;47.612;7.610;2023-04-28T07:46:58;97840.84;;;14.61;100.00
9307;BME280;4691;47.612;7.610;2023-04-28T07:49:24;97785.50;;;14.50;100.00
9307;BME280;4691;47.612;7.610;2023-04-28T07:51:49;97743.13;;;14.52;100.00
9307;BME280;4691;47.612;7.610;2023-04-28T07:54:17;97723.63;;;14.50;100.00
9307;BME280;4691;47.612;7.610;2023-04-28T07:56:46;97699.78;;;14.47;100.00
9307;BME280;4691;47.612;7.610;2023-04-28T07:59:11;97682.78;;;14.46;100.00
9307;BME280;4691;47.612;7.610;2023-04-28T08:01:37;97689.03;;;14.47;100.00
9307;BME280;4691;47.612;7.610;2023-04-28T08:04:02;97691.84;;;14.70;100.00
9307;BME280;4691;47.612;7.610;2023-04-28T08:06:28;97696.44;;;15.00;100.00
9307;BME280;4691;47.612;7.610;2023-04-28T08:08:56;97687.91;;;15.20;100.00
9307;BME280;4691;47.612;7.610;2023-04-28T08:11:27;97654.31;;;15.16;100.00
9307;BME280;4691;47.612;7.610;2023-04-28T08:13:52;97645.03;;;15.18;100.00
9307;BME280;4691;47.612;7.610;2023-04-28T08:16:20;97658.50;;;15.18;100.00
9307;BME280;4691;47.612;7.610;2023-04-28T08:18:48;97663.31;;;15.31;100.00
9307;BME280;4691;47.612;7.610;2023-04-28T08:21:14;97687.88;;;15.28;100.00
9307;BME280;4691;47.612;7.610;2023-04-28T08:23:42;97708.22;;;15.31;100.00
9307;BME280;4691;47.612;7.610;2023-04-28T08:26:11;97714.69;;;15.21;100.00
9307;BME280;4691;47.612;7.610;2023-04-28T08:28:39;97731.50;;;15.23;100.00
9307;BME280;4691;47.612;7.610;2023-04-28T08:31:07;97756.31;;;15.11;100.00
9307;BME280;4691;47.612;7.610;2023-04-28T08:33:33;97789.41;;;15.19;100.00
9307;BME280;4691;47.612;7.610;2023-04-28T08:35:58;97805.81;;;15.41;100.00
9307;BME280;4691;47.612;7.610;2023-04-28T08:38:24;97819.59;;;15.54;100.00
9307;BME280;4691;47.612;7.610;2023-04-28T08:40:50;97846.22;;;15.49;100.00
9307;BME280;4691;47.612;7.610;2023-04-28T08:43:16;97872.66;;;15.37;100.00
9307;BME280;4691;47.612;7.610;2023-04-28T08:45:42;97881.28;;;15.24;100.00
9307;BME280;4691;47.612;7.610;2023-04-28T08:48:19;97880.25;;;15.25;100.00
9307;BME280;4691;47.612;7.610;2023-04-28T08:50:48;97880.25;;;15.25;100.00
9307;BME280;4691;47.612;7.610;2023-04-28T08:53:20;97905.69;;;15.23;100.00
9307;BME280;4691;47.612;7.610;2023-04-28T08:55:46;97903.00;;;15.31;100.00
9307;BME280;4691;47.612;7.610;2023-04-28T08:58:11;97895.66;;;15.56;100.00
9307;BME280;4691;47.612;7.610;2023-04-28T09:00:37;97899.34;;;15.72;100.00
9307;BME280;4691;47.612;7.610;2023-04-28T09:03:02;97941.47;;;15.64;100.00
9307;BME280;4691;47.612;7.610;2023-04-28T09:05:29;97953.63;;;15.52;100.00
9307;BME280;4691;47.612;7.610;2023-04-28T09:07:54;97967.91;;;15.53;100.00
9307;BME280;4691;47.612;7.610;2023-04-28T09:10:22;97970.78;;;15.51;100.00
9307;BME280;4691;47.612;7.610;2023-04-28T09:12:50;97968.41;;;15.64;100.00
9307;BME280;4691;47.612;7.610;2023-04-28T09:17:54;97973.97;;;15.71;100.00
9307;BME280;4691;47.612;7.610;2023-04-28T09:20:24;97978.16;;;15.74;100.00
9307;BME280;4691;47.612;7.610;2023-04-28T09:22:51;97988.75;;;15.83;100.00
9307;BME280;4691;47.612;7.610;2023-04-28T09:25:18;98008.78;;;15.89;100.00
9307;BME280;4691;47.612;7.610;2023-04-28T09:27:45;98011.59;;;16.04;100.00
9307;BME280;4691;47.612;7.610;2023-04-28T09:30:11;98022.53;;;16.10;100.00
9307;BME280;4691;47.612;7.610;2023-04-28T09:32:37;98007.69;;;16.15;100.00
9307;BME280;4691;47.612;7.610;2023-04-28T09:35:02;98006.97;;;16.29;100.00
9307;BME280;4691;47.612;7.610;2023-04-28T09:37:29;98029.66;;;15.95;100.00
9307;BME280;4691;47.612;7.610;2023-04-28T09:39:56;98034.22;;;15.95;100.00
9307;BME280;4691;47.612;7.610;2023-04-28T09:42:38;98024.97;;;15.89;100.00
9307;BME280;4691;47.612;7.610;2023-04-28T09:45:08;97992.38;;;16.07;100.00
9307;BME280;4691;47.612;7.610;2023-04-28T09:47:35;97991.81;;;16.20;100.00
9307;BME280;4691;47.612;7.610;2023-04-28T09:50:05;97997.19;;;16.28;100.00
9307;BME280;4691;47.612;7.610;2023-04-28T09:52:33;98021.41;;;16.36;100.00
9307;BME280;4691;47.612;7.610;2023-04-28T09:55:01;98029.81;;;16.41;100.00
9307;BME280;4691;47.612;7.610;2023-04-28T09:57:29;98040.00;;;16.23;100.00
9307;BME280;4691;47.612;7.610;2023-04-28T09:59:56;98033.31;;;16.10;100.00
9307;BME280;4691;47.612;7.610;2023-04-28T10:02:22;97998.94;;;16.13;100.00
9307;BME280;4691;47.612;7.610;2023-04-28T10:04:48;98004.00;;;16.07;100.00
9307;BME280;4691;47.612;7.610;2023-04-28T10:07:15;97989.22;;;16.03;100.00
9307;BME280;4691;47.612;7.610;2023-04-28T10:09:42;97979.28;;;15.87;100.00
9307;BME280;4691;47.612;7.610;2023-04-28T10:12:19;97967.63;;;16.03;100.00
9307;BME280;4691;47.612;7.610;2023-04-28T10:14:45;97961.28;;;16.27;100.00
9307;BME280;4691;47.612;7.610;2023-04-28T10:17:12;97945.19;;;16.42;100.00
9307;BME280;4691;47.612;7.610;2023-04-28T10:19:39;97942.06;;;16.53;100.00
9307;BME280;4691;47.612;7.610;2023-04-28T10:25:11;97953.84;;;17.07;100.00
9307;BME280;4691;47.612;7.610;2023-04-28T10:27:44;97988.97;;;17.45;100.00
9307;BME280;4691;47.612;7.610;2023-04-28T10:32:36;98021.47;;;18.48;100.00
9307;BME280;4691;47.612;7.610;2023-04-28T10:38:06;98292.28;;;18.55;100.00
9307;BME280;4691;47.612;7.610;2023-04-28T10:40:45;98293.25;;;18.77;100.00
9307;BME280;4691;47.612;7.610;2023-04-28T10:43:32;98268.63;;;19.17;100.00
9307;BME280;4691;47.612;7.610;2023-04-28T10:46:00;98361.47;;;18.72;100.00
9307;BME280;4691;47.612;7.610;2023-04-28T10:58:41;98246.66;;;18.29;100.00
9307;BME280;4691;47.612;7.610;2023-04-28T11:03:50;98182.94;;;18.56;100.00
9307;BME280;4691;47.612;7.610;2023-04-28T11:11:44;98219.28;;;18.09;100.00
9307;BME280;4691;47.612;7.610;2023-04-28T11:17:01;98222.22;;;17.99;100.00
9307;BME280;4691;47.612;7.610;2023-04-28T11:22:04;98168.28;;;17.75;100.00
9307;BME280;4691;47.612;7.610;2023-04-28T11:24:35;98084.06;;;17.86;100.00
9307;BME280;4691;47.612;7.610;2023-04-28T11:27:01;98075.59;;;17.89;100.00
9307;BME280;4691;47.612;7.610;2023-04-28T11:29:37;98073.94;;;18.33;100.00
9307;BME280;4691;47.612;7.610;2023-04-28T11:32:04;98119.09;;;18.17;100.00
9307;BME280;4691;47.612;7.610;2023-04-28T11:34:29;98195.69;;;18.18;100.00
9307;BME280;4691;47.612;7.610;2023-04-28T11:36:55;98211.50;;;18.44;100.00
9307;BME280;4691;47.612;7.610;2023-04-28T11:39:31;98212.56;;;18.87;100.00
9307;BME280;4691;47.612;7.610;2023-04-28T11:41:59;98242.47;;;19.09;100.00
9307;BME280;4691;47.612;7.610;2023-04-28T11:44:27;98278.31;;;19.41;100.00
9307;BME280;4691;47.612;7.610;2023-04-28T11:46:55;98325.34;;;19.33;100.00
9307;BME280;4691;47.612;7.610;2023-04-28T11:49:24;98337.22;;;19.17;100.00
9307;BME280;4691;47.612;7.610;2023-04-28T11:51:51;98341.78;;;19.31;100.00
9307;BME280;4691;47.612;7.610;2023-04-28T11:54:21;98343.09;;;19.50;100.00
9307;BME280;4691;47.612;7.610;2023-04-28T11:56:47;98362.34;;;19.85;100.00
9307;BME280;4691;47.612;7.610;2023-04-28T11:59:13;98374.47;;;20.62;100.00
9307;BME280;4691;47.612;7.610;2023-04-28T12:01:53;98416.84;;;21.27;100.00
9307;BME280;4691;47.612;7.610;2023-04-28T12:04:29;98463.94;;;21.56;100.00
9307;BME280;4691;47.612;7.610;2023-04-28T12:07:06;98494.72;;;21.35;100.00
9307;BME280;4691;47.612;7.610;2023-04-28T12:09:34;98490.69;;;21.52;100.00
9307;BME280;4691;47.612;7.610;2023-04-28T12:12:04;98521.84;;;21.07;100.00
9307;BME280;4691;47.612;7.610;2023-04-28T12:14:31;98510.06;;;20.78;100.00
9307;BME280;4691;47.612;7.610;2023-04-28T12:16:59;98476.41;;;20.79;100.00
9307;BME280;4691;47.612;7.610;2023-04-28T12:19:25;98465.44;;;20.51;100.00
9307;BME280;4691;47.612;7.610;2023-04-28T12:22:04;98455.97;;;20.62;100.00
9307;BME280;4691;47.612;7.610;2023-04-28T12:24:30;98467.81;;;20.97;100.00
9307;BME280;4691;47.612;7.610;2023-04-28T12:27:18;98491.94;;;20.85;100.00
9307;BME280;4691;47.612;7.610;2023-04-28T12:29:49;98485.78;;;20.77;100.00
9307;BME280;4691;47.612;7.610;2023-04-28T12:32:15;98497.88;;;20.74;100.00
9307;BME280;4691;47.612;7.610;2023-04-28T12:34:41;98507.72;;;21.18;100.00
9307;BME280;4691;47.612;7.610;2023-04-28T12:37:07;98526.19;;;21.23;100.00
9307;BME280;4691;47.612;7.610;2023-04-28T12:39:34;98527.44;;;21.70;100.00
9307;BME280;4691;47.612;7.610;2023-04-28T12:42:01;98540.09;;;21.56;100.00
9307;BME280;4691;47.612;7.610;2023-04-28T12:44:36;98547.03;;;21.59;100.00
9307;BME280;4691;47.612;7.610;2023-04-28T12:47:03;98542.44;;;21.87;100.00
9307;BME280;4691;47.612;7.610;2023-04-28T12:49:28;98542.31;;;22.02;100.00
9307;BME280;4691;47.612;7.610;2023-04-28T12:51:54;98563.03;;;22.03;100.00
9307;BME280;4691;47.612;7.610;2023-04-28T12:54:19;98549.50;;;22.16;100.00
9307;BME280;4691;47.612;7.610;2023-04-28T12:56:44;98535.75;;;22.66;100.00
9307;BME280;4691;47.612;7.610;2023-04-28T12:59:10;98547.69;;;22.65;100.00
9307;BME280;4691;47.612;7.610;2023-04-28T13:01:35;98543.19;;;22.44;100.00
9307;BME280;4691;47.612;7.610;2023-04-28T13:04:01;98532.22;;;21.96;100.00
9307;BME280;4691;47.612;7.610;2023-04-28T13:06:26;98522.94;;;21.56;100.00
9307;BME280;4691;47.612;7.610;2023-04-28T13:08:52;98488.06;;;20.95;100.00
9307;BME280;4691;47.612;7.610;2023-04-28T13:11:18;98454.69;;;20.58;100.00
9307;BME280;4691;47.612;7.610;2023-04-28T13:13:43;98387.19;;;20.04;100.00
9307;BME280;4691;47.612;7.610;2023-04-28T13:16:09;98290.00;;;19.71;100.00
9307;BME280;4691;47.612;7.610;2023-04-28T13:18:34;98249.13;;;19.57;100.00
9307;BME280;4691;47.612;7.610;2023-04-28T13:21:00;98250.94;;;19.35;100.00
9307;BME280;4691;47.612;7.610;2023-04-28T13:23:25;98232.81;;;19.36;100.00
9307;BME280;4691;47.612;7.610;2023-04-28T13:25:50;98217.59;;;19.20;100.00
9307;BME280;4691;47.612;7.610;2023-04-28T13:28:16;98201.03;;;19.30;100.00
9307;BME280;4691;47.612;7.610;2023-04-28T13:30:41;98247.22;;;19.22;100.00
9307;BME280;4691;47.612;7.610;2023-04-28T13:33:06;98237.78;;;18.88;100.00
9307;BME280;4691;47.612;7.610;2023-04-28T13:35:31;98190.94;;;19.24;100.00
9307;BME280;4691;47.612;7.610;2023-04-28T13:37:57;98195.66;;;19.51;100.00
9307;BME280;4691;47.612;7.610;2023-04-28T13:40:29;98215.94;;;19.92;100.00
9307;BME280;4691;47.612;7.610;2023-04-28T13:42:54;98243.25;;;20.12;100.00
9307;BME280;4691;47.612;7.610;2023-04-28T13:45:20;98258.09;;;20.16;100.00
9307;BME280;4691;47.612;7.610;2023-04-28T13:47:46;98288.22;;;20.21;100.00
9307;BME280;4691;47.612;7.610;2023-04-28T13:50:12;98295.59;;;20.27;100.00